sensor_id;sensor_type;location;lat;lon;timestamp;P1;durP1;ratioP1;P2;durP2;ratioP2
15261;SDS011;7733;51.554;13.590;2023-11-21T00:01:37;4.40;;;2.83;;
15261;SDS011;7733;51.554;13.590;2023-11-21T00:04:03;5.53;;;3.30;;
15261;SDS011;7733;51.554;13.590;2023-11-21T00:06:29;5.30;;;3.07;;
15261;SDS011;7733;51.554;13.590;2023-11-21T00:08:55;6.00;;;3.13;;
15261;SDS011;7733;51.554;13.590;2023-11-21T00:11:21;4.37;;;3.30;;
15261;SDS011;7733;51.554;13.590;2023-11-21T00:13:47;3.43;;;3.00;;
15261;SDS011;7733;51.554;13.590;2023-11-21T00:16:12;5.43;;;3.40;;
15261;SDS011;7733;51.554;13.590;2023-11-21T00:18:38;5.33;;;2.83;;
15261;SDS011;7733;51.554;13.590;2023-11-21T00:21:04;6.23;;;3.43;;
15261;SDS011;7733;51.554;13.590;2023-11-21T00:23:30;3.40;;;3.07;;
15261;SDS011;7733;51.554;13.590;2023-11-21T00:25:56;6.00;;;2.93;;
15261;SDS011;7733;51.554;13.590;2023-11-21T00:28:22;7.67;;;3.30;;
15261;SDS011;7733;51.554;13.590;2023-11-21T00:30:47;3.27;;;2.97;;
15261;SDS011;7733;51.554;13.590;2023-11-21T00:33:13;6.30;;;3.37;;
15261;SDS011;7733;51.554;13.590;2023-11-21T00:35:39;6.40;;;3.40;;
15261;SDS011;7733;51.554;13.590;2023-11-21T00:38:05;3.23;;;2.93;;
15261;SDS011;7733;51.554;13.590;2023-11-21T00:40:30;5.17;;;3.20;;
15261;SDS011;7733;51.554;13.590;2023-11-21T00:42:56;3.40;;;3.10;;
15261;SDS011;7733;51.554;13.590;2023-11-21T00:45:22;5.17;;;3.10;;
15261;SDS011;7733;51.554;13.590;2023-11-21T00:47:47;4.57;;;3.23;;
15261;SDS011;7733;51.554;13.590;2023-11-21T00:50:13;4.93;;;3.00;;
15261;SDS011;7733;51.554;13.590;2023-11-21T00:52:40;4.17;;;2.80;;
15261;SDS011;7733;51.554;13.590;2023-11-21T00:55:06;4.37;;;3.20;;
15261;SDS011;7733;51.554;13.590;2023-11-21T00:57:32;5.67;;;3.37;;
15261;SDS011;7733;51.554;13.590;2023-11-21T00:59:59;5.17;;;3.17;;
15261;SDS011;7733;51.554;13.590;2023-11-21T01:02:25;6.77;;;3.00;;
15261;SDS011;7733;51.554;13.590;2023-11-21T01:04:51;5.43;;;2.93;;
15261;SDS011;7733;51.554;13.590;2023-11-21T01:07:17;4.00;;;2.77;;
15261;SDS011;7733;51.554;13.590;2023-11-21T01:09:45;4.47;;;2.90;;
15261;SDS011;7733;51.554;13.590;2023-11-21T01:12:11;5.37;;;3.30;;
15261;SDS011;7733;51.554;13.590;2023-11-21T01:14:37;5.53;;;3.07;;
15261;SDS011;7733;51.554;13.590;2023-11-21T01:17:03;6.27;;;2.80;;
15261;SDS011;7733;51.554;13.590;2023-11-21T01:19:29;6.10;;;3.17;;
15261;SDS011;7733;51.554;13.590;2023-11-21T01:21:55;5.53;;;3.03;;
15261;SDS011;7733;51.554;13.590;2023-11-21T01:24:22;5.13;;;3.20;;
15261;SDS011;7733;51.554;13.590;2023-11-21T01:26:48;5.70;;;2.77;;
15261;SDS011;7733;51.554;13.590;2023-11-21T01:29:14;4.37;;;2.83;;
15261;SDS011;7733;51.554;13.590;2023-11-21T01:31:40;4.43;;;2.70;;
15261;SDS011;7733;51.554;13.590;2023-11-21T01:34:06;5.47;;;3.07;;
15261;SDS011;7733;51.554;13.590;2023-11-21T01:36:32;4.33;;;2.57;;
15261;SDS011;7733;51.554;13.590;2023-11-21T01:38:58;4.47;;;2.63;;
15261;SDS011;7733;51.554;13.590;2023-11-21T01:41:25;3.83;;;2.80;;
15261;SDS011;7733;51.554;13.590;2023-11-21T01:43:53;5.47;;;3.17;;
15261;SDS011;7733;51.554;13.590;2023-11-21T01:46:20;4.50;;;2.87;;
15261;SDS011;7733;51.554;13.590;2023-11-21T01:48:48;5.73;;;3.10;;
15261;SDS011;7733;51.554;13.590;2023-11-21T01:51:14;2.90;;;2.57;;
15261;SDS011;7733;51.554;13.590;2023-11-21T01:53:40;2.80;;;2.40;;
15261;SDS011;7733;51.554;13.590;2023-11-21T01:56:06;3.40;;;2.40;;
15261;SDS011;7733;51.554;13.590;2023-11-21T01:58:34;3.83;;;2.70;;
15261;SDS011;7733;51.554;13.590;2023-11-21T02:01:00;6.37;;;3.13;;
15261;SDS011;7733;51.554;13.590;2023-11-21T02:03:26;3.17;;;2.90;;
15261;SDS011;7733;51.554;13.590;2023-11-21T02:05:52;4.80;;;2.90;;
15261;SDS011;7733;51.554;13.590;2023-11-21T02:08:19;5.93;;;2.73;;
15261;SDS011;7733;51.554;13.590;2023-11-21T02:10:45;3.40;;;2.73;;
15261;SDS011;7733;51.554;13.590;2023-11-21T02:13:11;4.13;;;2.80;;
15261;SDS011;7733;51.554;13.590;2023-11-21T02:15:37;4.57;;;2.93;;
15261;SDS011;7733;51.554;13.590;2023-11-21T02:18:03;3.70;;;2.97;;
15261;SDS011;7733;51.554;13.590;2023-11-21T02:20:31;3.37;;;3.00;;
15261;SDS011;7733;51.554;13.590;2023-11-21T02:23:00;4.30;;;2.97;;
15261;SDS011;7733;51.554;13.590;2023-11-21T02:25:29;4.77;;;2.90;;
15261;SDS011;7733;51.554;13.590;2023-11-21T02:27:58;3.90;;;3.13;;
15261;SDS011;7733;51.554;13.590;2023-11-21T02:30:26;7.07;;;3.13;;
15261;SDS011;7733;51.554;13.590;2023-11-21T02:32:53;4.13;;;3.00;;
15261;SDS011;7733;51.554;13.590;2023-11-21T02:35:22;3.60;;;3.00;;
15261;SDS011;7733;51.554;13.590;2023-11-21T02:37:49;3.10;;;2.83;;
15261;SDS011;7733;51.554;13.590;2023-11-21T02:40:15;5.07;;;3.27;;
15261;SDS011;7733;51.554;13.590;2023-11-21T02:42:45;6.50;;;3.17;;
15261;SDS011;7733;51.554;13.590;2023-11-21T02:45:18;5.23;;;3.07;;
15261;SDS011;7733;51.554;13.590;2023-11-21T02:47:49;6.20;;;3.47;;
15261;SDS011;7733;51.554;13.590;2023-11-21T02:50:15;4.03;;;3.30;;
15261;SDS011;7733;51.554;13.590;2023-11-21T02:52:41;6.30;;;3.60;;
15261;SDS011;7733;51.554;13.590;2023-11-21T02:55:07;5.30;;;3.40;;
15261;SDS011;7733;51.554;13.590;2023-11-21T02:57:33;6.20;;;3.40;;
15261;SDS011;7733;51.554;13.590;2023-11-21T02:59:59;5.43;;;3.53;;
15261;SDS011;7733;51.554;13.590;2023-11-21T03:02:25;5.97;;;3.53;;
15261;SDS011;7733;51.554;13.590;2023-11-21T03:04:51;4.20;;;3.60;;
15261;SDS011;7733;51.554;13.590;2023-11-21T03:07:17;7.60;;;3.90;;
15261;SDS011;7733;51.554;13.590;2023-11-21T03:09:44;7.70;;;4.07;;
15261;SDS011;7733;51.554;13.590;2023-11-21T03:12:10;4.73;;;3.70;;
15261;SDS011;7733;51.554;13.590;2023-11-21T03:14:40;5.77;;;3.60;;
15261;SDS011;7733;51.554;13.590;2023-11-21T03:17:06;7.43;;;4.13;;
15261;SDS011;7733;51.554;13.590;2023-11-21T03:19:32;8.27;;;3.90;;
15261;SDS011;7733;51.554;13.590;2023-11-21T03:21:58;4.13;;;3.70;;
15261;SDS011;7733;51.554;13.590;2023-11-21T03:24:24;5.63;;;4.10;;
15261;SDS011;7733;51.554;13.590;2023-11-21T03:26:51;4.77;;;3.97;;
15261;SDS011;7733;51.554;13.590;2023-11-21T03:29:17;6.20;;;4.10;;
15261;SDS011;7733;51.554;13.590;2023-11-21T03:31:43;5.53;;;4.03;;
15261;SDS011;7733;51.554;13.590;2023-11-21T03:34:11;5.70;;;4.40;;
15261;SDS011;7733;51.554;13.590;2023-11-21T03:36:44;6.70;;;4.23;;
15261;SDS011;7733;51.554;13.590;2023-11-21T03:39:11;7.40;;;4.20;;
15261;SDS011;7733;51.554;13.590;2023-11-21T03:41:37;6.90;;;3.97;;
15261;SDS011;7733;51.554;13.590;2023-11-21T03:44:03;4.60;;;3.87;;
15261;SDS011;7733;51.554;13.590;2023-11-21T03:46:29;4.50;;;4.00;;
15261;SDS011;7733;51.554;13.590;2023-11-21T03:48:54;6.33;;;4.70;;
15261;SDS011;7733;51.554;13.590;2023-11-21T03:51:20;6.90;;;4.53;;
15261;SDS011;7733;51.554;13.590;2023-11-21T03:53:46;4.80;;;4.33;;
15261;SDS011;7733;51.554;13.590;2023-11-21T03:56:13;6.87;;;4.43;;
15261;SDS011;7733;51.554;13.590;2023-11-21T03:58:39;8.70;;;5.03;;
15261;SDS011;7733;51.554;13.590;2023-11-21T04:01:05;12.40;;;4.97;;
15261;SDS011;7733;51.554;13.590;2023-11-21T04:03:31;8.43;;;5.00;;
15261;SDS011;7733;51.554;13.590;2023-11-21T04:05:57;5.00;;;4.50;;
15261;SDS011;7733;51.554;13.590;2023-11-21T04:08:22;6.83;;;4.80;;
15261;SDS011;7733;51.554;13.590;2023-11-21T04:10:48;6.47;;;4.47;;
15261;SDS011;7733;51.554;13.590;2023-11-21T04:13:14;8.50;;;5.00;;
15261;SDS011;7733;51.554;13.590;2023-11-21T04:15:39;9.33;;;5.50;;
15261;SDS011;7733;51.554;13.590;2023-11-21T04:18:05;7.73;;;5.23;;
15261;SDS011;7733;51.554;13.590;2023-11-21T04:20:31;6.67;;;4.97;;
15261;SDS011;7733;51.554;13.590;2023-11-21T04:22:57;8.30;;;5.60;;
15261;SDS011;7733;51.554;13.590;2023-11-21T04:25:23;10.87;;;5.57;;
15261;SDS011;7733;51.554;13.590;2023-11-21T04:27:48;9.00;;;5.53;;
15261;SDS011;7733;51.554;13.590;2023-11-21T04:30:14;12.47;;;6.93;;
15261;SDS011;7733;51.554;13.590;2023-11-21T04:32:40;6.60;;;5.10;;
15261;SDS011;7733;51.554;13.590;2023-11-21T04:35:07;8.27;;;5.50;;
15261;SDS011;7733;51.554;13.590;2023-11-21T04:37:34;7.30;;;5.63;;
15261;SDS011;7733;51.554;13.590;2023-11-21T04:39:59;7.37;;;5.13;;
15261;SDS011;7733;51.554;13.590;2023-11-21T04:42:25;10.60;;;6.53;;
15261;SDS011;7733;51.554;13.590;2023-11-21T04:44:51;11.00;;;6.10;;
15261;SDS011;7733;51.554;13.590;2023-11-21T04:47:17;15.87;;;7.67;;
15261;SDS011;7733;51.554;13.590;2023-11-21T04:49:45;9.17;;;5.40;;
15261;SDS011;7733;51.554;13.590;2023-11-21T04:52:14;10.17;;;5.53;;
15261;SDS011;7733;51.554;13.590;2023-11-21T04:54:40;10.87;;;6.07;;
15261;SDS011;7733;51.554;13.590;2023-11-21T04:57:06;9.43;;;5.40;;
15261;SDS011;7733;51.554;13.590;2023-11-21T04:59:34;10.50;;;6.03;;
15261;SDS011;7733;51.554;13.590;2023-11-21T05:02:00;13.10;;;6.77;;
15261;SDS011;7733;51.554;13.590;2023-11-21T05:04:26;16.20;;;7.87;;
15261;SDS011;7733;51.554;13.590;2023-11-21T05:06:52;12.43;;;6.73;;
15261;SDS011;7733;51.554;13.590;2023-11-21T05:09:17;12.23;;;7.37;;
15261;SDS011;7733;51.554;13.590;2023-11-21T05:11:43;12.63;;;6.80;;
15261;SDS011;7733;51.554;13.590;2023-11-21T05:14:09;9.57;;;6.00;;
15261;SDS011;7733;51.554;13.590;2023-11-21T05:16:35;10.23;;;6.10;;
15261;SDS011;7733;51.554;13.590;2023-11-21T05:19:01;12.07;;;6.70;;
15261;SDS011;7733;51.554;13.590;2023-11-21T05:21:27;14.53;;;7.00;;
15261;SDS011;7733;51.554;13.590;2023-11-21T05:23:57;10.97;;;6.37;;
15261;SDS011;7733;51.554;13.590;2023-11-21T05:26:23;11.27;;;6.97;;
15261;SDS011;7733;51.554;13.590;2023-11-21T05:28:49;16.43;;;7.23;;
15261;SDS011;7733;51.554;13.590;2023-11-21T05:31:15;12.17;;;6.70;;
15261;SDS011;7733;51.554;13.590;2023-11-21T05:33:41;11.57;;;6.90;;
15261;SDS011;7733;51.554;13.590;2023-11-21T05:36:07;13.53;;;7.67;;
15261;SDS011;7733;51.554;13.590;2023-11-21T05:38:35;11.37;;;7.17;;
15261;SDS011;7733;51.554;13.590;2023-11-21T05:41:01;10.43;;;7.10;;
15261;SDS011;7733;51.554;13.590;2023-11-21T05:43:28;12.20;;;7.80;;
15261;SDS011;7733;51.554;13.590;2023-11-21T05:45:55;10.90;;;7.70;;
15261;SDS011;7733;51.554;13.590;2023-11-21T05:48:21;12.27;;;7.50;;
15261;SDS011;7733;51.554;13.590;2023-11-21T05:50:47;15.77;;;8.03;;
15261;SDS011;7733;51.554;13.590;2023-11-21T05:53:14;14.20;;;7.60;;
15261;SDS011;7733;51.554;13.590;2023-11-21T05:55:41;15.43;;;8.03;;
15261;SDS011;7733;51.554;13.590;2023-11-21T05:58:07;13.07;;;7.63;;
15261;SDS011;7733;51.554;13.590;2023-11-21T06:00:33;12.27;;;8.00;;
15261;SDS011;7733;51.554;13.590;2023-11-21T06:02:59;15.67;;;9.07;;
15261;SDS011;7733;51.554;13.590;2023-11-21T06:05:26;14.20;;;9.00;;
15261;SDS011;7733;51.554;13.590;2023-11-21T06:07:52;13.27;;;8.00;;
15261;SDS011;7733;51.554;13.590;2023-11-21T06:10:20;16.43;;;8.67;;
15261;SDS011;7733;51.554;13.590;2023-11-21T06:12:46;12.63;;;8.50;;
15261;SDS011;7733;51.554;13.590;2023-11-21T06:15:13;16.60;;;9.53;;
15261;SDS011;7733;51.554;13.590;2023-11-21T06:17:39;13.73;;;9.40;;
15261;SDS011;7733;51.554;13.590;2023-11-21T06:20:07;12.93;;;8.63;;
15261;SDS011;7733;51.554;13.590;2023-11-21T06:22:39;13.70;;;8.10;;
15261;SDS011;7733;51.554;13.590;2023-11-21T06:25:07;12.07;;;9.33;;
15261;SDS011;7733;51.554;13.590;2023-11-21T06:27:34;19.77;;;13.13;;
15261;SDS011;7733;51.554;13.590;2023-11-21T06:30:07;21.37;;;13.40;;
15261;SDS011;7733;51.554;13.590;2023-11-21T06:32:34;15.60;;;10.03;;
15261;SDS011;7733;51.554;13.590;2023-11-21T06:35:04;8.97;;;7.93;;
15261;SDS011;7733;51.554;13.590;2023-11-21T06:37:31;5.40;;;4.93;;
15261;SDS011;7733;51.554;13.590;2023-11-21T06:39:58;5.37;;;4.00;;
15261;SDS011;7733;51.554;13.590;2023-11-21T06:42:25;3.47;;;3.37;;
15261;SDS011;7733;51.554;13.590;2023-11-21T06:44:52;4.17;;;3.87;;
15261;SDS011;7733;51.554;13.590;2023-11-21T06:47:22;3.57;;;3.37;;
15261;SDS011;7733;51.554;13.590;2023-11-21T06:49:53;3.00;;;2.90;;
15261;SDS011;7733;51.554;13.590;2023-11-21T06:52:19;2.43;;;2.33;;
15261;SDS011;7733;51.554;13.590;2023-11-21T06:54:48;3.07;;;2.70;;
15261;SDS011;7733;51.554;13.590;2023-11-21T06:57:16;2.07;;;2.00;;
15261;SDS011;7733;51.554;13.590;2023-11-21T06:59:43;2.17;;;2.10;;
15261;SDS011;7733;51.554;13.590;2023-11-21T07:02:09;2.13;;;2.03;;
15261;SDS011;7733;51.554;13.590;2023-11-21T07:04:35;2.40;;;2.20;;
15261;SDS011;7733;51.554;13.590;2023-11-21T07:07:02;2.40;;;2.30;;
15261;SDS011;7733;51.554;13.590;2023-11-21T07:09:29;2.47;;;2.17;;
15261;SDS011;7733;51.554;13.590;2023-11-21T07:11:56;2.20;;;2.00;;
15261;SDS011;7733;51.554;13.590;2023-11-21T07:14:21;2.10;;;2.00;;
15261;SDS011;7733;51.554;13.590;2023-11-21T07:16:47;1.90;;;1.90;;
15261;SDS011;7733;51.554;13.590;2023-11-21T07:19:13;2.23;;;2.13;;
15261;SDS011;7733;51.554;13.590;2023-11-21T07:21:40;2.30;;;2.20;;
15261;SDS011;7733;51.554;13.590;2023-11-21T07:24:06;2.27;;;2.17;;
15261;SDS011;7733;51.554;13.590;2023-11-21T07:26:33;2.50;;;2.33;;
15261;SDS011;7733;51.554;13.590;2023-11-21T07:29:00;3.27;;;3.07;;
15261;SDS011;7733;51.554;13.590;2023-11-21T07:31:27;3.37;;;3.27;;
15261;SDS011;7733;51.554;13.590;2023-11-21T07:33:54;3.40;;;3.30;;
15261;SDS011;7733;51.554;13.590;2023-11-21T07:36:23;4.00;;;3.83;;
15261;SDS011;7733;51.554;13.590;2023-11-21T07:38:49;4.63;;;4.43;;
15261;SDS011;7733;51.554;13.590;2023-11-21T07:41:16;5.07;;;4.77;;
15261;SDS011;7733;51.554;13.590;2023-11-21T07:43:44;5.07;;;4.77;;
15261;SDS011;7733;51.554;13.590;2023-11-21T07:46:11;5.40;;;5.07;;
15261;SDS011;7733;51.554;13.590;2023-11-21T07:48:41;6.07;;;5.67;;
15261;SDS011;7733;51.554;13.590;2023-11-21T07:51:08;6.40;;;5.90;;
15261;SDS011;7733;51.554;13.590;2023-11-21T07:53:35;7.87;;;7.17;;
15261;SDS011;7733;51.554;13.590;2023-11-21T07:56:05;8.10;;;7.40;;
15261;SDS011;7733;51.554;13.590;2023-11-21T07:58:33;9.57;;;8.70;;
15261;SDS011;7733;51.554;13.590;2023-11-21T08:01:03;9.53;;;8.53;;
15261;SDS011;7733;51.554;13.590;2023-11-21T08:03:29;10.57;;;9.67;;
15261;SDS011;7733;51.554;13.590;2023-11-21T08:05:56;21.07;;;19.30;;
15261;SDS011;7733;51.554;13.590;2023-11-21T08:08:23;8.03;;;7.37;;
15261;SDS011;7733;51.554;13.590;2023-11-21T08:10:49;10.63;;;9.63;;
15261;SDS011;7733;51.554;13.590;2023-11-21T08:13:22;10.10;;;9.10;;
15261;SDS011;7733;51.554;13.590;2023-11-21T08:15:49;9.87;;;8.87;;
15261;SDS011;7733;51.554;13.590;2023-11-21T08:18:15;8.20;;;7.40;;
15261;SDS011;7733;51.554;13.590;2023-11-21T08:20:42;7.80;;;7.10;;
15261;SDS011;7733;51.554;13.590;2023-11-21T08:23:09;8.57;;;6.87;;
15261;SDS011;7733;51.554;13.590;2023-11-21T08:25:35;6.60;;;6.10;;
15261;SDS011;7733;51.554;13.590;2023-11-21T08:28:02;6.80;;;6.27;;
15261;SDS011;7733;51.554;13.590;2023-11-21T08:30:28;6.63;;;6.13;;
15261;SDS011;7733;51.554;13.590;2023-11-21T08:32:55;7.30;;;6.60;;
15261;SDS011;7733;51.554;13.590;2023-11-21T08:35:23;7.13;;;6.50;;
15261;SDS011;7733;51.554;13.590;2023-11-21T08:37:52;6.70;;;6.10;;
15261;SDS011;7733;51.554;13.590;2023-11-21T08:40:18;6.47;;;5.70;;
15261;SDS011;7733;51.554;13.590;2023-11-21T08:42:46;6.20;;;5.80;;
15261;SDS011;7733;51.554;13.590;2023-11-21T08:45:12;5.60;;;5.20;;
15261;SDS011;7733;51.554;13.590;2023-11-21T08:47:40;5.63;;;5.13;;
15261;SDS011;7733;51.554;13.590;2023-11-21T08:50:06;6.23;;;5.80;;
15261;SDS011;7733;51.554;13.590;2023-11-21T08:52:33;6.40;;;5.90;;
15261;SDS011;7733;51.554;13.590;2023-11-21T08:54:59;6.03;;;5.60;;
15261;SDS011;7733;51.554;13.590;2023-11-21T08:57:32;8.60;;;7.90;;
15261;SDS011;7733;51.554;13.590;2023-11-21T09:00:06;7.37;;;6.87;;
15261;SDS011;7733;51.554;13.590;2023-11-21T09:02:36;6.97;;;6.37;;
15261;SDS011;7733;51.554;13.590;2023-11-21T09:05:06;7.40;;;6.50;;
15261;SDS011;7733;51.554;13.590;2023-11-21T09:07:34;6.73;;;6.10;;
15261;SDS011;7733;51.554;13.590;2023-11-21T09:10:02;6.37;;;5.90;;
15261;SDS011;7733;51.554;13.590;2023-11-21T09:12:29;6.23;;;5.73;;
15261;SDS011;7733;51.554;13.590;2023-11-21T09:14:54;6.70;;;6.10;;
15261;SDS011;7733;51.554;13.590;2023-11-21T09:17:20;7.47;;;6.93;;
15261;SDS011;7733;51.554;13.590;2023-11-21T09:19:46;6.23;;;5.83;;
15261;SDS011;7733;51.554;13.590;2023-11-21T09:22:15;6.97;;;6.37;;
15261;SDS011;7733;51.554;13.590;2023-11-21T09:24:41;6.47;;;5.87;;
15261;SDS011;7733;51.554;13.590;2023-11-21T09:27:07;7.00;;;6.40;;
15261;SDS011;7733;51.554;13.590;2023-11-21T09:29:34;7.40;;;6.80;;
15261;SDS011;7733;51.554;13.590;2023-11-21T09:32:03;7.17;;;6.57;;
15261;SDS011;7733;51.554;13.590;2023-11-21T09:34:32;6.47;;;5.97;;
15261;SDS011;7733;51.554;13.590;2023-11-21T09:37:03;7.50;;;6.90;;
15261;SDS011;7733;51.554;13.590;2023-11-21T09:39:33;7.50;;;6.90;;
15261;SDS011;7733;51.554;13.590;2023-11-21T09:42:04;6.90;;;6.40;;
15261;SDS011;7733;51.554;13.590;2023-11-21T09:44:46;6.97;;;6.37;;
15261;SDS011;7733;51.554;13.590;2023-11-21T09:47:23;7.13;;;6.53;;
15261;SDS011;7733;51.554;13.590;2023-11-21T09:49:49;6.70;;;6.27;;
15261;SDS011;7733;51.554;13.590;2023-11-21T09:52:23;7.10;;;6.60;;
15261;SDS011;7733;51.554;13.590;2023-11-21T09:54:52;6.60;;;6.13;;
15261;SDS011;7733;51.554;13.590;2023-11-21T09:57:20;7.43;;;6.83;;
15261;SDS011;7733;51.554;13.590;2023-11-21T09:59:52;6.30;;;5.77;;
15261;SDS011;7733;51.554;13.590;2023-11-21T10:02:30;7.00;;;6.40;;
15261;SDS011;7733;51.554;13.590;2023-11-21T10:05:02;6.80;;;6.30;;
15261;SDS011;7733;51.554;13.590;2023-11-21T10:07:29;7.83;;;7.13;;
15261;SDS011;7733;51.554;13.590;2023-11-21T10:09:59;6.40;;;5.97;;
15261;SDS011;7733;51.554;13.590;2023-11-21T10:12:27;6.83;;;6.33;;
15261;SDS011;7733;51.554;13.590;2023-11-21T10:14:55;6.37;;;5.93;;
15261;SDS011;7733;51.554;13.590;2023-11-21T10:17:23;6.97;;;6.27;;
15261;SDS011;7733;51.554;13.590;2023-11-21T10:19:55;6.67;;;6.17;;
15261;SDS011;7733;51.554;13.590;2023-11-21T10:22:22;6.70;;;6.10;;
15261;SDS011;7733;51.554;13.590;2023-11-21T10:24:49;5.67;;;5.37;;
15261;SDS011;7733;51.554;13.590;2023-11-21T10:27:15;6.03;;;5.60;;
15261;SDS011;7733;51.554;13.590;2023-11-21T10:29:41;5.20;;;4.90;;
15261;SDS011;7733;51.554;13.590;2023-11-21T10:32:07;4.90;;;4.50;;
15261;SDS011;7733;51.554;13.590;2023-11-21T10:34:33;4.43;;;4.23;;
15261;SDS011;7733;51.554;13.590;2023-11-21T10:36:59;5.60;;;5.23;;
15261;SDS011;7733;51.554;13.590;2023-11-21T10:39:37;6.50;;;6.17;;
15261;SDS011;7733;51.554;13.590;2023-11-21T10:42:04;5.30;;;5.00;;
15261;SDS011;7733;51.554;13.590;2023-11-21T10:44:35;6.33;;;5.80;;
15261;SDS011;7733;51.554;13.590;2023-11-21T10:47:01;11.07;;;10.17;;
15261;SDS011;7733;51.554;13.590;2023-11-21T10:49:27;6.27;;;5.87;;
15261;SDS011;7733;51.554;13.590;2023-11-21T10:51:53;6.70;;;6.20;;
15261;SDS011;7733;51.554;13.590;2023-11-21T10:54:20;7.17;;;6.57;;
15261;SDS011;7733;51.554;13.590;2023-11-21T10:56:49;7.10;;;6.40;;
15261;SDS011;7733;51.554;13.590;2023-11-21T10:59:18;6.60;;;6.03;;
15261;SDS011;7733;51.554;13.590;2023-11-21T11:01:46;8.43;;;6.50;;
15261;SDS011;7733;51.554;13.590;2023-11-21T11:04:14;7.10;;;6.50;;
15261;SDS011;7733;51.554;13.590;2023-11-21T11:06:44;7.93;;;7.13;;
15261;SDS011;7733;51.554;13.590;2023-11-21T11:09:16;9.37;;;7.90;;
15261;SDS011;7733;51.554;13.590;2023-11-21T11:11:43;7.50;;;6.70;;
15261;SDS011;7733;51.554;13.590;2023-11-21T11:14:12;9.23;;;7.63;;
15261;SDS011;7733;51.554;13.590;2023-11-21T11:16:39;8.70;;;7.80;;
15261;SDS011;7733;51.554;13.590;2023-11-21T11:19:07;8.90;;;8.10;;
15261;SDS011;7733;51.554;13.590;2023-11-21T11:27:30;9.53;;;7.60;;
15261;SDS011;7733;51.554;13.590;2023-11-21T11:30:19;8.80;;;7.90;;
15261;SDS011;7733;51.554;13.590;2023-11-21T11:33:00;9.70;;;7.63;;
15261;SDS011;7733;51.554;13.590;2023-11-21T11:36:14;8.53;;;6.93;;
15261;SDS011;7733;51.554;13.590;2023-11-21T11:39:49;8.20;;;7.03;;
15261;SDS011;7733;51.554;13.590;2023-11-21T11:42:07;7.80;;;7.00;;
15261;SDS011;7733;51.554;13.590;2023-11-21T11:47:24;7.57;;;6.80;;
15261;SDS011;7733;51.554;13.590;2023-11-21T11:52:50;7.53;;;6.47;;
15261;SDS011;7733;51.554;13.590;2023-11-21T11:55:20;6.13;;;5.37;;
15261;SDS011;7733;51.554;13.590;2023-11-21T11:57:49;7.60;;;6.90;;
15261;SDS011;7733;51.554;13.590;2023-11-21T12:00:18;6.70;;;5.87;;
15261;SDS011;7733;51.554;13.590;2023-11-21T12:02:52;6.47;;;5.87;;
15261;SDS011;7733;51.554;13.590;2023-11-21T12:05:28;6.30;;;5.67;;
15261;SDS011;7733;51.554;13.590;2023-11-21T12:08:01;7.47;;;6.77;;
15261;SDS011;7733;51.554;13.590;2023-11-21T12:10:33;7.17;;;6.47;;
15261;SDS011;7733;51.554;13.590;2023-11-21T12:13:02;5.57;;;4.93;;
15261;SDS011;7733;51.554;13.590;2023-11-21T12:15:35;5.73;;;5.23;;
15261;SDS011;7733;51.554;13.590;2023-11-21T12:18:02;5.53;;;5.03;;
15261;SDS011;7733;51.554;13.590;2023-11-21T12:20:28;5.70;;;5.20;;
15261;SDS011;7733;51.554;13.590;2023-11-21T12:22:59;5.83;;;5.23;;
15261;SDS011;7733;51.554;13.590;2023-11-21T12:25:26;4.80;;;4.50;;
15261;SDS011;7733;51.554;13.590;2023-11-21T12:27:54;5.53;;;5.00;;
15261;SDS011;7733;51.554;13.590;2023-11-21T12:30:22;5.10;;;4.70;;
15261;SDS011;7733;51.554;13.590;2023-11-21T12:32:54;6.87;;;4.90;;
15261;SDS011;7733;51.554;13.590;2023-11-21T12:35:22;5.67;;;5.17;;
15261;SDS011;7733;51.554;13.590;2023-11-21T12:37:51;5.73;;;5.23;;
15261;SDS011;7733;51.554;13.590;2023-11-21T12:40:19;5.30;;;4.90;;
15261;SDS011;7733;51.554;13.590;2023-11-21T12:42:48;4.80;;;4.50;;
15261;SDS011;7733;51.554;13.590;2023-11-21T12:45:20;5.00;;;4.60;;
15261;SDS011;7733;51.554;13.590;2023-11-21T12:47:46;5.27;;;4.73;;
15261;SDS011;7733;51.554;13.590;2023-11-21T12:50:20;4.77;;;4.43;;
15261;SDS011;7733;51.554;13.590;2023-11-21T12:52:53;4.93;;;4.63;;
15261;SDS011;7733;51.554;13.590;2023-11-21T12:55:24;5.07;;;4.67;;
15261;SDS011;7733;51.554;13.590;2023-11-21T12:57:51;4.47;;;4.17;;
15261;SDS011;7733;51.554;13.590;2023-11-21T13:00:20;4.43;;;4.13;;
15261;SDS011;7733;51.554;13.590;2023-11-21T13:03:02;4.50;;;4.10;;
15261;SDS011;7733;51.554;13.590;2023-11-21T13:05:32;4.67;;;4.37;;
15261;SDS011;7733;51.554;13.590;2023-11-21T13:08:01;3.87;;;3.57;;
15261;SDS011;7733;51.554;13.590;2023-11-21T13:10:31;4.17;;;3.87;;
15261;SDS011;7733;51.554;13.590;2023-11-21T13:13:01;4.13;;;3.70;;
15261;SDS011;7733;51.554;13.590;2023-11-21T13:15:39;3.80;;;3.50;;
15261;SDS011;7733;51.554;13.590;2023-11-21T13:18:06;7.10;;;6.50;;
15261;SDS011;7733;51.554;13.590;2023-11-21T13:20:32;3.60;;;3.40;;
15261;SDS011;7733;51.554;13.590;2023-11-21T13:22:58;3.10;;;2.97;;
15261;SDS011;7733;51.554;13.590;2023-11-21T13:25:25;4.13;;;3.83;;
15261;SDS011;7733;51.554;13.590;2023-11-21T13:27:56;3.80;;;3.50;;
15261;SDS011;7733;51.554;13.590;2023-11-21T13:30:26;4.73;;;4.33;;
15261;SDS011;7733;51.554;13.590;2023-11-21T13:32:58;4.63;;;4.33;;
15261;SDS011;7733;51.554;13.590;2023-11-21T13:35:36;4.33;;;4.03;;
15261;SDS011;7733;51.554;13.590;2023-11-21T13:38:10;6.10;;;5.73;;
15261;SDS011;7733;51.554;13.590;2023-11-21T13:40:38;4.43;;;4.13;;
15261;SDS011;7733;51.554;13.590;2023-11-21T13:43:10;4.80;;;4.50;;
15261;SDS011;7733;51.554;13.590;2023-11-21T13:45:41;4.50;;;4.30;;
15261;SDS011;7733;51.554;13.590;2023-11-21T13:48:09;4.20;;;3.90;;
15261;SDS011;7733;51.554;13.590;2023-11-21T13:50:42;3.70;;;3.50;;
15261;SDS011;7733;51.554;13.590;2023-11-21T13:53:34;5.03;;;4.73;;
15261;SDS011;7733;51.554;13.590;2023-11-21T13:56:02;4.97;;;4.30;;
15261;SDS011;7733;51.554;13.590;2023-11-21T13:58:29;4.17;;;3.93;;
15261;SDS011;7733;51.554;13.590;2023-11-21T14:01:09;3.40;;;3.30;;
15261;SDS011;7733;51.554;13.590;2023-11-21T14:03:56;2.60;;;2.40;;
15261;SDS011;7733;51.554;13.590;2023-11-21T14:06:43;2.70;;;2.60;;
15261;SDS011;7733;51.554;13.590;2023-11-21T14:09:16;2.33;;;2.20;;
15261;SDS011;7733;51.554;13.590;2023-11-21T14:11:51;2.20;;;2.10;;
15261;SDS011;7733;51.554;13.590;2023-11-21T14:14:22;2.20;;;2.10;;
15261;SDS011;7733;51.554;13.590;2023-11-21T14:16:51;2.30;;;2.20;;
15261;SDS011;7733;51.554;13.590;2023-11-21T14:19:17;2.30;;;2.20;;
15261;SDS011;7733;51.554;13.590;2023-11-21T14:21:43;3.00;;;2.77;;
15261;SDS011;7733;51.554;13.590;2023-11-21T14:24:13;4.57;;;2.27;;
15261;SDS011;7733;51.554;13.590;2023-11-21T14:26:40;4.73;;;4.53;;
15261;SDS011;7733;51.554;13.590;2023-11-21T14:29:08;3.77;;;3.47;;
15261;SDS011;7733;51.554;13.590;2023-11-21T14:31:38;1.90;;;1.80;;
15261;SDS011;7733;51.554;13.590;2023-11-21T14:34:04;1.73;;;1.30;;
15261;SDS011;7733;51.554;13.590;2023-11-21T14:36:32;1.20;;;1.20;;
15261;SDS011;7733;51.554;13.590;2023-11-21T14:38:58;1.23;;;1.13;;
15261;SDS011;7733;51.554;13.590;2023-11-21T14:41:24;0.93;;;0.90;;
15261;SDS011;7733;51.554;13.590;2023-11-21T14:43:50;1.30;;;1.00;;
15261;SDS011;7733;51.554;13.590;2023-11-21T14:46:16;3.70;;;3.43;;
15261;SDS011;7733;51.554;13.590;2023-11-21T14:48:44;37.83;;;32.33;;
15261;SDS011;7733;51.554;13.590;2023-11-21T14:51:23;6.03;;;5.73;;
15261;SDS011;7733;51.554;13.590;2023-11-21T14:53:50;22.00;;;20.47;;
15261;SDS011;7733;51.554;13.590;2023-11-21T14:56:22;39.00;;;24.63;;
15261;SDS011;7733;51.554;13.590;2023-11-21T14:59:00;14.07;;;8.53;;
15261;SDS011;7733;51.554;13.590;2023-11-21T15:01:41;5.40;;;5.00;;
15261;SDS011;7733;51.554;13.590;2023-11-21T15:04:10;13.27;;;11.90;;